UAL2533 KIAD-KLAX
Flight info
| Callsign | UAL2533 |
|---|---|
| Flight time | 4h 9m |
| Altitude | 34000 |
| Route | CLTCH3 MAULS Q40 BFOLO FIBER HRISN Q30 IZAAC ELD MULQN FDRER EWM J4 WLVRN ESTWD HLYWD1 |
| Aircraft | B77W/H-SDE1E2E3FGHIJ2J3J4J5M1RWXY/LB1D1 |
Departure
| Time | 2026-04-24 01:36 |
|---|---|
| Airport | Washington Dulles International Airport (KIAD) |
Arrival
| Time | 2026-04-24 05:46 |
|---|---|
| Airport | Los Angeles International Airport (KLAX) |
| Time | Latitude | Longitude | Altitude | Speed | Heading |
|---|---|---|---|---|---|
| 2026-04-24 01:19 | 38.94469 | -77.44370 | 305 ft | 0 kts | 350° |
| 2026-04-24 01:27 | 38.94462 | -77.44369 | 305 ft | 2 kts | 352° |
| 2026-04-24 01:27 | 38.94443 | -77.44367 | 305 ft | 3 kts | 358° |
| 2026-04-24 01:27 | 38.94427 | -77.44366 | 305 ft | 3 kts | 349° |
| 2026-04-24 01:27 | 38.94411 | -77.44359 | 305 ft | 3 kts | 305° |
| 2026-04-24 01:28 | 38.94406 | -77.44338 | 305 ft | 3 kts | 267° |
| 2026-04-24 01:28 | 38.94407 | -77.44317 | 305 ft | 1 kts | 270° |
| 2026-04-24 01:28 | 38.94407 | -77.44315 | 305 ft | 0 kts | 270° |
| 2026-04-24 01:30 | 38.94407 | -77.44316 | 305 ft | 2 kts | 270° |
| 2026-04-24 01:30 | 38.94410 | -77.44437 | 306 ft | 17 kts | 272° |
| 2026-04-24 01:30 | 38.94413 | -77.44592 | 306 ft | 17 kts | 269° |
| 2026-04-24 01:31 | 38.94413 | -77.44748 | 308 ft | 17 kts | 269° |
| 2026-04-24 01:31 | 38.94414 | -77.44851 | 306 ft | 17 kts | 272° |
| 2026-04-24 01:31 | 38.94416 | -77.45006 | 305 ft | 17 kts | 272° |
| 2026-04-24 01:31 | 38.94420 | -77.45162 | 305 ft | 17 kts | 270° |
| 2026-04-24 01:32 | 38.94414 | -77.45317 | 307 ft | 17 kts | 269° |
| 2026-04-24 01:32 | 38.94419 | -77.45457 | 305 ft | 12 kts | 275° |
| 2026-04-24 01:32 | 38.94418 | -77.45561 | 306 ft | 12 kts | 258° |
| 2026-04-24 01:32 | 38.94354 | -77.45614 | 308 ft | 12 kts | 183° |
| 2026-04-24 01:33 | 38.94272 | -77.45614 | 308 ft | 12 kts | 181° |
| 2026-04-24 01:33 | 38.94189 | -77.45620 | 308 ft | 12 kts | 181° |
| 2026-04-24 01:33 | 38.94107 | -77.45619 | 308 ft | 12 kts | 179° |
| 2026-04-24 01:33 | 38.94025 | -77.45618 | 307 ft | 12 kts | 181° |
| 2026-04-24 01:34 | 38.93943 | -77.45620 | 307 ft | 12 kts | 179° |
| 2026-04-24 01:34 | 38.93861 | -77.45619 | 308 ft | 12 kts | 181° |
| 2026-04-24 01:34 | 38.93778 | -77.45623 | 307 ft | 12 kts | 180° |
| 2026-04-24 01:34 | 38.93698 | -77.45607 | 307 ft | 12 kts | 152° |
| 2026-04-24 01:35 | 38.93642 | -77.45529 | 307 ft | 12 kts | 133° |
| 2026-04-24 01:35 | 38.93562 | -77.45515 | 306 ft | 12 kts | 189° |
| 2026-04-24 01:35 | 38.93480 | -77.45549 | 304 ft | 14 kts | 201° |
| 2026-04-24 01:35 | 38.93389 | -77.45629 | 304 ft | 16 kts | 246° |
| 2026-04-24 01:36 | 38.93439 | -77.45862 | 304 ft | 60 kts | 290° |
| 2026-04-24 01:36 | 38.93703 | -77.46756 | 311 ft | 151 kts | 290° |
| 2026-04-24 01:36 | 38.94149 | -77.48248 | 677 ft | 192 kts | 291° |
| 2026-04-24 01:36 | 38.94636 | -77.49958 | 1307 ft | 214 kts | 290° |
| 2026-04-24 01:37 | 38.95139 | -77.51800 | 2144 ft | 219 kts | 287° |
| 2026-04-24 01:37 | 38.95163 | -77.53717 | 2765 ft | 222 kts | 249° |
| 2026-04-24 01:37 | 38.94183 | -77.55311 | 3042 ft | 244 kts | 211° |
| 2026-04-24 01:37 | 38.92518 | -77.56182 | 3052 ft | 269 kts | 199° |
| 2026-04-24 01:38 | 38.90748 | -77.57033 | 3015 ft | 274 kts | 202° |
| 2026-04-24 01:38 | 38.88979 | -77.57949 | 2999 ft | 273 kts | 203° |
| 2026-04-24 01:38 | 38.87236 | -77.58877 | 2999 ft | 270 kts | 204° |
| 2026-04-24 01:38 | 38.85516 | -77.59821 | 3001 ft | 268 kts | 205° |
| 2026-04-24 01:39 | 38.83823 | -77.60778 | 3000 ft | 265 kts | 206° |
| 2026-04-24 01:39 | 38.82147 | -77.61751 | 3196 ft | 265 kts | 206° |
| 2026-04-24 01:39 | 38.80465 | -77.62742 | 4065 ft | 268 kts | 207° |
| 2026-04-24 01:39 | 38.78770 | -77.63749 | 4996 ft | 269 kts | 207° |
| 2026-04-24 01:40 | 38.77066 | -77.64764 | 5908 ft | 271 kts | 207° |
| 2026-04-24 01:40 | 38.75355 | -77.65793 | 6779 ft | 273 kts | 208° |
| 2026-04-24 01:40 | 38.73622 | -77.66833 | 7592 ft | 277 kts | 208° |
| 2026-04-24 01:40 | 38.71865 | -77.67892 | 8389 ft | 281 kts | 208° |
| 2026-04-24 01:41 | 38.70083 | -77.68970 | 9180 ft | 285 kts | 208° |
| 2026-04-24 01:41 | 38.68302 | -77.70046 | 9942 ft | 289 kts | 208° |
| 2026-04-24 01:41 | 38.66428 | -77.71178 | 10538 ft | 302 kts | 208° |
| 2026-04-24 01:41 | 38.64446 | -77.72379 | 10734 ft | 329 kts | 208° |
| 2026-04-24 01:42 | 38.62297 | -77.73674 | 10925 ft | 354 kts | 208° |
| 2026-04-24 01:42 | 38.60026 | -77.75039 | 11230 ft | 376 kts | 207° |
| 2026-04-24 01:42 | 38.57623 | -77.76482 | 11876 ft | 387 kts | 207° |
| 2026-04-24 01:42 | 38.55158 | -77.77962 | 12650 ft | 395 kts | 207° |
| 2026-04-24 01:43 | 38.52709 | -77.79548 | 13476 ft | 395 kts | 216° |
| 2026-04-24 01:43 | 38.50698 | -77.81888 | 14216 ft | 390 kts | 233° |
| 2026-04-24 01:43 | 38.48961 | -77.84600 | 14882 ft | 398 kts | 232° |
| 2026-04-24 01:43 | 38.47131 | -77.87275 | 15766 ft | 402 kts | 231° |
| 2026-04-24 01:44 | 38.45248 | -77.89922 | 16679 ft | 404 kts | 231° |
| 2026-04-24 01:44 | 38.43413 | -77.92652 | 17485 ft | 407 kts | 235° |
| 2026-04-24 01:44 | 38.41743 | -77.95581 | 18251 ft | 410 kts | 238° |
| 2026-04-24 01:44 | 38.40132 | -77.98606 | 18991 ft | 415 kts | 239° |
| 2026-04-24 01:45 | 38.38513 | -78.01669 | 19692 ft | 419 kts | 238° |
| 2026-04-24 01:45 | 38.36857 | -78.04761 | 20356 ft | 425 kts | 238° |
| 2026-04-24 01:45 | 38.35166 | -78.07871 | 21016 ft | 429 kts | 238° |
| 2026-04-24 01:45 | 38.33440 | -78.11003 | 21662 ft | 434 kts | 237° |
| 2026-04-24 01:46 | 38.31688 | -78.14159 | 22289 ft | 438 kts | 237° |
| 2026-04-24 01:46 | 38.29918 | -78.17333 | 22884 ft | 443 kts | 237° |
| 2026-04-24 01:46 | 38.28126 | -78.20544 | 23478 ft | 447 kts | 237° |
| 2026-04-24 01:46 | 38.26319 | -78.23775 | 24049 ft | 450 kts | 237° |
| 2026-04-24 01:47 | 38.24494 | -78.27037 | 24607 ft | 454 kts | 237° |
| 2026-04-24 01:47 | 38.22657 | -78.30318 | 25163 ft | 457 kts | 237° |
| 2026-04-24 01:47 | 38.20804 | -78.33626 | 25720 ft | 460 kts | 237° |
| 2026-04-24 01:47 | 38.18945 | -78.36946 | 26264 ft | 462 kts | 237° |
| 2026-04-24 01:48 | 38.17153 | -78.40345 | 26766 ft | 463 kts | 244° |
| 2026-04-24 01:48 | 38.15823 | -78.44060 | 27247 ft | 462 kts | 251° |
| 2026-04-24 01:48 | 38.14706 | -78.47841 | 27691 ft | 465 kts | 252° |
| 2026-04-24 01:48 | 38.13596 | -78.51709 | 28130 ft | 467 kts | 252° |
| 2026-04-24 01:49 | 38.12465 | -78.55593 | 28564 ft | 470 kts | 252° |
| 2026-04-24 01:49 | 38.11305 | -78.59473 | 28977 ft | 472 kts | 251° |
| 2026-04-24 01:49 | 38.10112 | -78.63365 | 29374 ft | 474 kts | 251° |
| 2026-04-24 01:49 | 38.08900 | -78.67259 | 29747 ft | 475 kts | 251° |
| 2026-04-24 01:50 | 38.07673 | -78.71164 | 30088 ft | 477 kts | 251° |
| 2026-04-24 01:50 | 38.06439 | -78.75070 | 30461 ft | 477 kts | 251° |
| 2026-04-24 01:50 | 38.05205 | -78.78973 | 30903 ft | 475 kts | 251° |
| 2026-04-24 01:50 | 38.03975 | -78.82857 | 31338 ft | 473 kts | 251° |
| 2026-04-24 01:51 | 38.02752 | -78.86724 | 31723 ft | 473 kts | 251° |
| 2026-04-24 01:51 | 38.01529 | -78.90594 | 32112 ft | 472 kts | 251° |
| 2026-04-24 01:51 | 38.00311 | -78.94443 | 32513 ft | 471 kts | 251° |
| 2026-04-24 01:51 | 37.99091 | -78.98288 | 32885 ft | 470 kts | 251° |
| 2026-04-24 01:52 | 37.97868 | -79.02142 | 33075 ft | 473 kts | 251° |
| 2026-04-24 01:52 | 37.96636 | -79.06008 | 33361 ft | 473 kts | 251° |
| 2026-04-24 01:52 | 37.95404 | -79.09875 | 33728 ft | 472 kts | 251° |
| 2026-04-24 01:52 | 37.94174 | -79.13733 | 33952 ft | 474 kts | 252° |
| 2026-04-24 01:53 | 37.92934 | -79.17623 | 33974 ft | 477 kts | 252° |
| 2026-04-24 01:53 | 37.90449 | -79.25373 | 34006 ft | 472 kts | 251° |
| 2026-04-24 01:54 | 37.87976 | -79.33044 | 34021 ft | 471 kts | 250° |
| 2026-04-24 01:54 | 37.84652 | -79.40230 | 34032 ft | 476 kts | 240° |
| 2026-04-24 01:55 | 37.80951 | -79.47193 | 34048 ft | 478 kts | 240° |
| 2026-04-24 01:55 | 37.77284 | -79.54218 | 34062 ft | 479 kts | 241° |
| 2026-04-24 01:56 | 37.73661 | -79.61311 | 34056 ft | 481 kts | 241° |
| 2026-04-24 01:56 | 37.70045 | -79.68432 | 34057 ft | 482 kts | 241° |
| 2026-04-24 01:57 | 37.66424 | -79.75540 | 34056 ft | 481 kts | 241° |
| 2026-04-24 01:57 | 37.62799 | -79.82636 | 34049 ft | 480 kts | 241° |
| 2026-04-24 01:58 | 37.59200 | -79.89663 | 34056 ft | 480 kts | 241° |
| 2026-04-24 01:58 | 37.55570 | -79.96731 | 34053 ft | 480 kts | 241° |
| 2026-04-24 01:59 | 37.51940 | -80.03787 | 34047 ft | 480 kts | 241° |
| 2026-04-24 01:59 | 37.48301 | -80.10846 | 34050 ft | 480 kts | 241° |
| 2026-04-24 02:00 | 37.44661 | -80.17892 | 34050 ft | 481 kts | 241° |
| 2026-04-24 02:00 | 37.41010 | -80.24942 | 34059 ft | 480 kts | 240° |
| 2026-04-24 02:01 | 37.37358 | -80.31978 | 34060 ft | 481 kts | 240° |
| 2026-04-24 02:01 | 37.33699 | -80.39023 | 34067 ft | 482 kts | 240° |
| 2026-04-24 02:02 | 37.30023 | -80.46067 | 34077 ft | 482 kts | 240° |
| 2026-04-24 02:02 | 37.26361 | -80.53128 | 34076 ft | 483 kts | 241° |
| 2026-04-24 02:03 | 37.21184 | -80.63949 | 34064 ft | 482 kts | 243° |
| 2026-04-24 02:03 | 37.17762 | -80.71175 | 34067 ft | 482 kts | 242° |
| 2026-04-24 02:04 | 37.14302 | -80.78373 | 34067 ft | 482 kts | 242° |
| 2026-04-24 02:04 | 37.10849 | -80.85507 | 34070 ft | 482 kts | 242° |
| 2026-04-24 02:05 | 37.07366 | -80.92690 | 34076 ft | 483 kts | 242° |
| 2026-04-24 02:05 | 37.03875 | -80.99875 | 34082 ft | 483 kts | 242° |
| 2026-04-24 02:06 | 37.00384 | -81.07049 | 34100 ft | 483 kts | 242° |
| 2026-04-24 02:06 | 36.96887 | -81.14225 | 34091 ft | 483 kts | 242° |
| 2026-04-24 02:07 | 36.93382 | -81.21396 | 34111 ft | 483 kts | 242° |
| 2026-04-24 02:07 | 36.89872 | -81.28563 | 34118 ft | 483 kts | 242° |
| 2026-04-24 02:08 | 36.86356 | -81.35725 | 34124 ft | 484 kts | 242° |
| 2026-04-24 02:08 | 36.82832 | -81.42893 | 34120 ft | 485 kts | 242° |
| 2026-04-24 02:09 | 36.79299 | -81.50063 | 34111 ft | 485 kts | 241° |
| 2026-04-24 02:09 | 36.75759 | -81.57231 | 34116 ft | 486 kts | 241° |
| 2026-04-24 02:10 | 36.72205 | -81.64398 | 34111 ft | 486 kts | 241° |
| 2026-04-24 02:10 | 36.68856 | -81.71675 | 34103 ft | 482 kts | 250° |
| 2026-04-24 02:11 | 36.66373 | -81.79413 | 34098 ft | 481 kts | 251° |
| 2026-04-24 02:11 | 36.63882 | -81.87162 | 34087 ft | 482 kts | 251° |
| 2026-04-24 02:12 | 36.61349 | -81.94897 | 34076 ft | 483 kts | 250° |
| 2026-04-24 02:12 | 36.58792 | -82.02632 | 34074 ft | 483 kts | 250° |
| 2026-04-24 02:13 | 36.56229 | -82.10351 | 34077 ft | 483 kts | 250° |
| 2026-04-24 02:13 | 36.53664 | -82.18074 | 34077 ft | 483 kts | 250° |
| 2026-04-24 02:14 | 36.51091 | -82.25792 | 34063 ft | 483 kts | 250° |
| 2026-04-24 02:14 | 36.48518 | -82.33500 | 34060 ft | 483 kts | 250° |
| 2026-04-24 02:15 | 36.45938 | -82.41208 | 34056 ft | 483 kts | 250° |
| 2026-04-24 02:15 | 36.43351 | -82.48910 | 34058 ft | 483 kts | 250° |
| 2026-04-24 02:16 | 36.40762 | -82.56601 | 34053 ft | 483 kts | 250° |
| 2026-04-24 02:16 | 36.38183 | -82.64242 | 34057 ft | 483 kts | 250° |
| 2026-04-24 02:17 | 36.35587 | -82.71919 | 34058 ft | 482 kts | 250° |
| 2026-04-24 02:17 | 36.32986 | -82.79591 | 34051 ft | 482 kts | 250° |
| 2026-04-24 02:18 | 36.30380 | -82.87248 | 34056 ft | 482 kts | 250° |
| 2026-04-24 02:18 | 36.27770 | -82.94900 | 34055 ft | 482 kts | 249° |
| 2026-04-24 02:19 | 36.25582 | -83.01304 | 34060 ft | 482 kts | 249° |
| 2026-04-24 02:19 | 36.22964 | -83.08950 | 34056 ft | 482 kts | 249° |
| 2026-04-24 02:20 | 36.20342 | -83.16585 | 34056 ft | 482 kts | 249° |
| 2026-04-24 02:20 | 36.17716 | -83.24211 | 34064 ft | 482 kts | 249° |
| 2026-04-24 02:21 | 36.15103 | -83.31786 | 34064 ft | 482 kts | 249° |
| 2026-04-24 02:21 | 36.12468 | -83.39403 | 34065 ft | 482 kts | 249° |
| 2026-04-24 02:22 | 36.09826 | -83.47018 | 34066 ft | 482 kts | 249° |
| 2026-04-24 02:22 | 36.07178 | -83.54627 | 34063 ft | 482 kts | 249° |
| 2026-04-24 02:23 | 36.04528 | -83.62235 | 34056 ft | 482 kts | 249° |
| 2026-04-24 02:23 | 36.01870 | -83.69848 | 34051 ft | 483 kts | 248° |
| 2026-04-24 02:24 | 35.99203 | -83.77456 | 34035 ft | 483 kts | 248° |
| 2026-04-24 02:24 | 35.96532 | -83.85061 | 34042 ft | 483 kts | 248° |
| 2026-04-24 02:25 | 35.93860 | -83.92659 | 34029 ft | 483 kts | 248° |
| 2026-04-24 02:25 | 35.91179 | -84.00249 | 34046 ft | 483 kts | 248° |
| 2026-04-24 02:26 | 35.88494 | -84.07840 | 34041 ft | 483 kts | 248° |
| 2026-04-24 02:26 | 35.85803 | -84.15427 | 34038 ft | 483 kts | 248° |
| 2026-04-24 02:27 | 35.83109 | -84.23004 | 34038 ft | 482 kts | 248° |
| 2026-04-24 02:27 | 35.80413 | -84.30568 | 34042 ft | 482 kts | 248° |
| 2026-04-24 02:28 | 35.77713 | -84.38126 | 34046 ft | 482 kts | 248° |
| 2026-04-24 02:28 | 35.75007 | -84.45683 | 34046 ft | 482 kts | 248° |
| 2026-04-24 02:29 | 35.72295 | -84.53237 | 34046 ft | 482 kts | 248° |
| 2026-04-24 02:29 | 35.69577 | -84.60785 | 34048 ft | 482 kts | 248° |
| 2026-04-24 02:30 | 35.66856 | -84.68333 | 34038 ft | 482 kts | 248° |
| 2026-04-24 02:30 | 35.64132 | -84.75870 | 34052 ft | 482 kts | 247° |
| 2026-04-24 02:31 | 35.61421 | -84.83352 | 34033 ft | 482 kts | 247° |
| 2026-04-24 02:31 | 35.58690 | -84.90869 | 34026 ft | 482 kts | 247° |
| 2026-04-24 02:32 | 35.55953 | -84.98380 | 34017 ft | 482 kts | 247° |
| 2026-04-24 02:32 | 35.53207 | -85.05889 | 34022 ft | 482 kts | 247° |
| 2026-04-24 02:33 | 35.50466 | -85.13387 | 34023 ft | 481 kts | 247° |
| 2026-04-24 02:33 | 35.47725 | -85.20865 | 34031 ft | 480 kts | 247° |
| 2026-04-24 02:34 | 35.44979 | -85.28336 | 34030 ft | 480 kts | 246° |
| 2026-04-24 02:34 | 35.42226 | -85.35801 | 34032 ft | 480 kts | 246° |
| 2026-04-24 02:35 | 35.39473 | -85.43254 | 34030 ft | 480 kts | 246° |
| 2026-04-24 02:35 | 35.36716 | -85.50697 | 34026 ft | 480 kts | 246° |
| 2026-04-24 02:36 | 35.33957 | -85.58135 | 34033 ft | 480 kts | 246° |
| 2026-04-24 02:36 | 35.31194 | -85.65564 | 34028 ft | 479 kts | 246° |
| 2026-04-24 02:37 | 35.28428 | -85.72981 | 34031 ft | 479 kts | 246° |
| 2026-04-24 02:37 | 35.25659 | -85.80390 | 34044 ft | 479 kts | 246° |
| 2026-04-24 02:38 | 35.22885 | -85.87795 | 34046 ft | 479 kts | 246° |
| 2026-04-24 02:38 | 35.20104 | -85.95199 | 34033 ft | 479 kts | 246° |
| 2026-04-24 02:39 | 35.17317 | -86.02605 | 34032 ft | 480 kts | 246° |
| 2026-04-24 02:39 | 35.14530 | -86.09990 | 34026 ft | 478 kts | 246° |
| 2026-04-24 02:40 | 35.11744 | -86.17360 | 34040 ft | 477 kts | 246° |
| 2026-04-24 02:40 | 35.08961 | -86.24706 | 34042 ft | 476 kts | 246° |
| 2026-04-24 02:41 | 35.06177 | -86.32036 | 34041 ft | 476 kts | 246° |
| 2026-04-24 02:41 | 35.03411 | -86.39305 | 34048 ft | 475 kts | 246° |
| 2026-04-24 02:42 | 35.00620 | -86.46620 | 34045 ft | 476 kts | 246° |
| 2026-04-24 02:42 | 34.97821 | -86.53940 | 34046 ft | 476 kts | 245° |
| 2026-04-24 02:43 | 34.95020 | -86.61260 | 34030 ft | 477 kts | 246° |
| 2026-04-24 02:43 | 34.92858 | -86.68867 | 34036 ft | 475 kts | 254° |
| 2026-04-24 02:44 | 34.91020 | -86.76590 | 34045 ft | 475 kts | 254° |
| 2026-04-24 02:44 | 34.89144 | -86.84321 | 34033 ft | 476 kts | 253° |
| 2026-04-24 02:45 | 34.87233 | -86.92047 | 34027 ft | 477 kts | 253° |
| 2026-04-24 02:45 | 34.85306 | -86.99769 | 34026 ft | 477 kts | 253° |
| 2026-04-24 02:46 | 34.83374 | -87.07485 | 34028 ft | 476 kts | 253° |
| 2026-04-24 02:46 | 34.81443 | -87.15183 | 34033 ft | 475 kts | 253° |
| 2026-04-24 02:47 | 34.79509 | -87.22873 | 34031 ft | 475 kts | 253° |
| 2026-04-24 02:47 | 34.77575 | -87.30543 | 34027 ft | 474 kts | 253° |
| 2026-04-24 02:48 | 34.75635 | -87.38214 | 34043 ft | 474 kts | 253° |
| 2026-04-24 02:48 | 34.73694 | -87.45861 | 34032 ft | 474 kts | 253° |
| 2026-04-24 02:49 | 34.71750 | -87.53508 | 34026 ft | 473 kts | 253° |
| 2026-04-24 02:49 | 34.69801 | -87.61147 | 34015 ft | 473 kts | 253° |
| 2026-04-24 02:50 | 34.67843 | -87.68784 | 34010 ft | 473 kts | 253° |
| 2026-04-24 02:50 | 34.65885 | -87.76410 | 34011 ft | 473 kts | 253° |
| 2026-04-24 02:51 | 34.63924 | -87.84026 | 34014 ft | 472 kts | 253° |
| 2026-04-24 02:51 | 34.61961 | -87.91636 | 34019 ft | 472 kts | 253° |
| 2026-04-24 02:52 | 34.60007 | -87.99189 | 34025 ft | 472 kts | 253° |
| 2026-04-24 02:52 | 34.58032 | -88.06795 | 34023 ft | 472 kts | 253° |
| 2026-04-24 02:53 | 34.56050 | -88.14397 | 34006 ft | 473 kts | 252° |
| 2026-04-24 02:53 | 34.54066 | -88.21992 | 34006 ft | 472 kts | 252° |
| 2026-04-24 02:54 | 34.52081 | -88.29576 | 34015 ft | 472 kts | 252° |
| 2026-04-24 02:54 | 34.50096 | -88.37142 | 34008 ft | 471 kts | 252° |
| 2026-04-24 02:55 | 34.48104 | -88.44701 | 34011 ft | 470 kts | 252° |
| 2026-04-24 02:55 | 34.46110 | -88.52247 | 34003 ft | 470 kts | 252° |
| 2026-04-24 02:56 | 34.44113 | -88.59788 | 33998 ft | 470 kts | 252° |
| 2026-04-24 02:56 | 34.42112 | -88.67321 | 33995 ft | 470 kts | 252° |
| 2026-04-24 02:57 | 34.40108 | -88.74846 | 33992 ft | 470 kts | 252° |
| 2026-04-24 02:57 | 34.38096 | -88.82380 | 33990 ft | 470 kts | 252° |
| 2026-04-24 02:58 | 34.36080 | -88.89908 | 33990 ft | 470 kts | 252° |
| 2026-04-24 02:58 | 34.34060 | -88.97425 | 33992 ft | 470 kts | 252° |
| 2026-04-24 02:59 | 34.32035 | -89.04945 | 33990 ft | 470 kts | 252° |
| 2026-04-24 02:59 | 34.30008 | -89.12453 | 33990 ft | 470 kts | 252° |
| 2026-04-24 03:00 | 34.27976 | -89.19957 | 33983 ft | 469 kts | 252° |
| 2026-04-24 03:00 | 34.25942 | -89.27449 | 33981 ft | 469 kts | 252° |
| 2026-04-24 03:01 | 34.23918 | -89.34872 | 33982 ft | 468 kts | 252° |
| 2026-04-24 03:01 | 34.21883 | -89.42342 | 33980 ft | 468 kts | 252° |
| 2026-04-24 03:02 | 34.19841 | -89.49805 | 33981 ft | 468 kts | 252° |
| 2026-04-24 03:02 | 34.17793 | -89.57270 | 33980 ft | 468 kts | 252° |
| 2026-04-24 03:03 | 34.15738 | -89.64732 | 33970 ft | 469 kts | 252° |
| 2026-04-24 03:03 | 34.13671 | -89.72222 | 33966 ft | 471 kts | 252° |
| 2026-04-24 03:04 | 34.11591 | -89.79728 | 33964 ft | 472 kts | 252° |
| 2026-04-24 03:04 | 34.09843 | -89.86028 | 33963 ft | 473 kts | 252° |
| 2026-04-24 03:05 | 34.07751 | -89.93553 | 33949 ft | 474 kts | 252° |
| 2026-04-24 03:05 | 34.05655 | -90.01087 | 33947 ft | 474 kts | 252° |
| 2026-04-24 03:06 | 34.03549 | -90.08613 | 33952 ft | 473 kts | 252° |
| 2026-04-24 03:06 | 34.01457 | -90.16067 | 33931 ft | 472 kts | 252° |
| 2026-04-24 03:07 | 33.99341 | -90.23606 | 33936 ft | 472 kts | 252° |
| 2026-04-24 03:07 | 33.97248 | -90.31035 | 33937 ft | 471 kts | 252° |
| 2026-04-24 03:08 | 33.94079 | -90.42241 | 33932 ft | 471 kts | 252° |
| 2026-04-24 03:09 | 33.91962 | -90.49705 | 33927 ft | 471 kts | 252° |
| 2026-04-24 03:09 | 33.89838 | -90.57170 | 33925 ft | 471 kts | 252° |
| 2026-04-24 03:10 | 33.87716 | -90.64622 | 33921 ft | 471 kts | 252° |
| 2026-04-24 03:10 | 33.85586 | -90.72068 | 33919 ft | 470 kts | 252° |
| 2026-04-24 03:11 | 33.83454 | -90.79501 | 33919 ft | 470 kts | 252° |
| 2026-04-24 03:11 | 33.81322 | -90.86920 | 33916 ft | 469 kts | 252° |
| 2026-04-24 03:12 | 33.79187 | -90.94328 | 33918 ft | 468 kts | 252° |
| 2026-04-24 03:12 | 33.77051 | -91.01719 | 33919 ft | 468 kts | 252° |
| 2026-04-24 03:13 | 33.74914 | -91.09105 | 33918 ft | 467 kts | 252° |
| 2026-04-24 03:13 | 33.72775 | -91.16473 | 33919 ft | 466 kts | 252° |
| 2026-04-24 03:14 | 33.70635 | -91.23821 | 33916 ft | 466 kts | 252° |
| 2026-04-24 03:14 | 33.68491 | -91.31166 | 33917 ft | 466 kts | 252° |
| 2026-04-24 03:15 | 33.66343 | -91.38512 | 33915 ft | 466 kts | 252° |
| 2026-04-24 03:15 | 33.64193 | -91.45844 | 33918 ft | 466 kts | 252° |
| 2026-04-24 03:16 | 33.62037 | -91.53173 | 33911 ft | 466 kts | 252° |
| 2026-04-24 03:16 | 33.59877 | -91.60500 | 33909 ft | 466 kts | 252° |
| 2026-04-24 03:17 | 33.57712 | -91.67828 | 33905 ft | 466 kts | 252° |
| 2026-04-24 03:17 | 33.55543 | -91.75149 | 33906 ft | 466 kts | 252° |
| 2026-04-24 03:18 | 33.53369 | -91.82470 | 33910 ft | 466 kts | 252° |
| 2026-04-24 03:18 | 33.51191 | -91.89786 | 33906 ft | 466 kts | 252° |
| 2026-04-24 03:19 | 33.49007 | -91.97103 | 33908 ft | 466 kts | 252° |
| 2026-04-24 03:19 | 33.46821 | -92.04413 | 33908 ft | 466 kts | 252° |
| 2026-04-24 03:20 | 33.44644 | -92.11667 | 33909 ft | 465 kts | 252° |
| 2026-04-24 03:20 | 33.42454 | -92.18949 | 33904 ft | 464 kts | 253° |
| 2026-04-24 03:21 | 33.40265 | -92.26208 | 33909 ft | 463 kts | 253° |
| 2026-04-24 03:21 | 33.38079 | -92.33446 | 33903 ft | 462 kts | 253° |
| 2026-04-24 03:22 | 33.35889 | -92.40676 | 33901 ft | 462 kts | 253° |
| 2026-04-24 03:22 | 33.33699 | -92.47889 | 33899 ft | 461 kts | 253° |
| 2026-04-24 03:23 | 33.31507 | -92.55090 | 33898 ft | 460 kts | 253° |
| 2026-04-24 03:23 | 33.29314 | -92.62276 | 33898 ft | 460 kts | 253° |
| 2026-04-24 03:24 | 33.27119 | -92.69455 | 33898 ft | 459 kts | 253° |
| 2026-04-24 03:24 | 33.25202 | -92.76715 | 33902 ft | 457 kts | 261° |
| 2026-04-24 03:25 | 33.24109 | -92.84161 | 33906 ft | 455 kts | 263° |
| 2026-04-24 03:25 | 33.23033 | -92.91605 | 33901 ft | 454 kts | 263° |
| 2026-04-24 03:26 | 33.21932 | -92.99028 | 33894 ft | 454 kts | 263° |
| 2026-04-24 03:26 | 33.20815 | -93.06447 | 33886 ft | 454 kts | 263° |
| 2026-04-24 03:27 | 33.19694 | -93.13852 | 33879 ft | 453 kts | 263° |
| 2026-04-24 03:27 | 33.18576 | -93.21204 | 33869 ft | 453 kts | 263° |
| 2026-04-24 03:28 | 33.17448 | -93.28593 | 33872 ft | 452 kts | 263° |
| 2026-04-24 03:28 | 33.16317 | -93.35972 | 33869 ft | 452 kts | 263° |
| 2026-04-24 03:29 | 33.15185 | -93.43335 | 33869 ft | 451 kts | 263° |
| 2026-04-24 03:29 | 33.14051 | -93.50684 | 33881 ft | 450 kts | 263° |
| 2026-04-24 03:30 | 33.12913 | -93.58028 | 33877 ft | 450 kts | 263° |
| 2026-04-24 03:30 | 33.11772 | -93.65368 | 33882 ft | 450 kts | 263° |
| 2026-04-24 03:31 | 33.10623 | -93.72705 | 33878 ft | 450 kts | 263° |
| 2026-04-24 03:31 | 33.09470 | -93.80051 | 33880 ft | 450 kts | 263° |
| 2026-04-24 03:32 | 33.08313 | -93.87387 | 33878 ft | 450 kts | 263° |
| 2026-04-24 03:32 | 33.07152 | -93.94718 | 33881 ft | 450 kts | 263° |
| 2026-04-24 03:33 | 33.05990 | -94.02042 | 33880 ft | 449 kts | 263° |
| 2026-04-24 03:33 | 33.04825 | -94.09344 | 33883 ft | 447 kts | 264° |
| 2026-04-24 03:34 | 33.03659 | -94.16621 | 33877 ft | 446 kts | 264° |
| 2026-04-24 03:34 | 33.02494 | -94.23878 | 33880 ft | 446 kts | 264° |
| 2026-04-24 03:35 | 33.01334 | -94.31077 | 33878 ft | 445 kts | 264° |
| 2026-04-24 03:35 | 33.00162 | -94.38311 | 33880 ft | 444 kts | 264° |
| 2026-04-24 03:36 | 32.98992 | -94.45526 | 33876 ft | 444 kts | 264° |
| 2026-04-24 03:36 | 32.97811 | -94.52751 | 33871 ft | 444 kts | 264° |
| 2026-04-24 03:37 | 32.96628 | -94.59967 | 33872 ft | 444 kts | 264° |
| 2026-04-24 03:37 | 32.95441 | -94.67189 | 33866 ft | 444 kts | 264° |
| 2026-04-24 03:38 | 32.94251 | -94.74405 | 33861 ft | 444 kts | 263° |
| 2026-04-24 03:38 | 32.93056 | -94.81625 | 33856 ft | 444 kts | 263° |
| 2026-04-24 03:39 | 32.91854 | -94.88840 | 33856 ft | 444 kts | 263° |
| 2026-04-24 03:39 | 32.90651 | -94.96048 | 33849 ft | 444 kts | 263° |
| 2026-04-24 03:40 | 32.89446 | -95.03244 | 33853 ft | 443 kts | 263° |
| 2026-04-24 03:40 | 32.88238 | -95.10432 | 33850 ft | 443 kts | 263° |
| 2026-04-24 03:41 | 32.87026 | -95.17604 | 33851 ft | 442 kts | 263° |
| 2026-04-24 03:41 | 32.85815 | -95.24760 | 33850 ft | 441 kts | 263° |
| 2026-04-24 03:42 | 32.84598 | -95.31912 | 33850 ft | 441 kts | 263° |
| 2026-04-24 03:42 | 32.83385 | -95.39020 | 33843 ft | 441 kts | 263° |
| 2026-04-24 03:43 | 32.82161 | -95.46171 | 33843 ft | 441 kts | 263° |
| 2026-04-24 03:43 | 32.80933 | -95.53317 | 33842 ft | 441 kts | 263° |
| 2026-04-24 03:44 | 32.79701 | -95.60458 | 33844 ft | 441 kts | 263° |
| 2026-04-24 03:44 | 32.78465 | -95.67596 | 33843 ft | 441 kts | 263° |
| 2026-04-24 03:45 | 32.77226 | -95.74721 | 33842 ft | 440 kts | 263° |
| 2026-04-24 03:45 | 32.76022 | -95.81855 | 33843 ft | 439 kts | 265° |
| 2026-04-24 03:46 | 32.75556 | -95.89045 | 33843 ft | 435 kts | 274° |
| 2026-04-24 03:46 | 32.75746 | -95.96219 | 33838 ft | 435 kts | 275° |
| 2026-04-24 03:47 | 32.75934 | -96.03398 | 33833 ft | 435 kts | 274° |
| 2026-04-24 03:47 | 32.76101 | -96.10575 | 33834 ft | 434 kts | 274° |
| 2026-04-24 03:48 | 32.76258 | -96.17745 | 33834 ft | 434 kts | 274° |
| 2026-04-24 03:48 | 32.76409 | -96.24897 | 33833 ft | 433 kts | 274° |
| 2026-04-24 03:49 | 32.76554 | -96.32050 | 33834 ft | 433 kts | 274° |
| 2026-04-24 03:49 | 32.76694 | -96.39200 | 33836 ft | 433 kts | 274° |
| 2026-04-24 03:50 | 32.76833 | -96.46310 | 33825 ft | 433 kts | 274° |
| 2026-04-24 03:50 | 32.76968 | -96.53470 | 33822 ft | 434 kts | 274° |
| 2026-04-24 03:51 | 32.77097 | -96.60631 | 33824 ft | 433 kts | 274° |
| 2026-04-24 03:51 | 32.77223 | -96.67787 | 33821 ft | 433 kts | 274° |
| 2026-04-24 03:52 | 32.77345 | -96.74942 | 33813 ft | 433 kts | 274° |
| 2026-04-24 03:52 | 32.77463 | -96.82105 | 33811 ft | 433 kts | 273° |
| 2026-04-24 03:53 | 32.77576 | -96.89262 | 33806 ft | 433 kts | 273° |
| 2026-04-24 03:53 | 32.77667 | -96.95208 | 33804 ft | 433 kts | 273° |
| 2026-04-24 03:54 | 32.77773 | -97.02351 | 33809 ft | 433 kts | 273° |
| 2026-04-24 03:54 | 32.77875 | -97.09495 | 33816 ft | 432 kts | 273° |
| 2026-04-24 03:55 | 32.77972 | -97.16640 | 33811 ft | 432 kts | 273° |
| 2026-04-24 03:55 | 32.78067 | -97.23784 | 33806 ft | 432 kts | 273° |
| 2026-04-24 03:56 | 32.78157 | -97.30927 | 33802 ft | 432 kts | 273° |
| 2026-04-24 03:56 | 32.78241 | -97.38070 | 33797 ft | 432 kts | 273° |
| 2026-04-24 03:57 | 32.78323 | -97.45206 | 33803 ft | 432 kts | 272° |
| 2026-04-24 03:57 | 32.78402 | -97.52340 | 33805 ft | 432 kts | 272° |
| 2026-04-24 03:58 | 32.78474 | -97.59476 | 33807 ft | 432 kts | 272° |
| 2026-04-24 03:58 | 32.78543 | -97.66620 | 33802 ft | 432 kts | 272° |
| 2026-04-24 03:59 | 32.78609 | -97.73768 | 33795 ft | 432 kts | 272° |
| 2026-04-24 03:59 | 32.78669 | -97.80866 | 33792 ft | 433 kts | 272° |
| 2026-04-24 04:00 | 32.78726 | -97.88013 | 33783 ft | 433 kts | 272° |
| 2026-04-24 04:00 | 32.78781 | -97.95162 | 33770 ft | 433 kts | 272° |
| 2026-04-24 04:01 | 32.78829 | -98.02310 | 33779 ft | 432 kts | 272° |
| 2026-04-24 04:01 | 32.78874 | -98.09443 | 33782 ft | 431 kts | 272° |
| 2026-04-24 04:02 | 32.78915 | -98.16565 | 33782 ft | 431 kts | 272° |
| 2026-04-24 04:02 | 32.78952 | -98.23678 | 33779 ft | 430 kts | 272° |
| 2026-04-24 04:03 | 32.78984 | -98.30777 | 33781 ft | 430 kts | 272° |
| 2026-04-24 04:03 | 32.79013 | -98.37883 | 33776 ft | 430 kts | 271° |
| 2026-04-24 04:04 | 32.79038 | -98.44991 | 33763 ft | 430 kts | 271° |
| 2026-04-24 04:04 | 32.79060 | -98.52092 | 33761 ft | 429 kts | 271° |
| 2026-04-24 04:05 | 32.79076 | -98.59186 | 33757 ft | 429 kts | 271° |
| 2026-04-24 04:05 | 32.79087 | -98.66275 | 33762 ft | 429 kts | 271° |
| 2026-04-24 04:06 | 32.79096 | -98.73252 | 33775 ft | 429 kts | 271° |
| 2026-04-24 04:06 | 32.79102 | -98.80335 | 33772 ft | 429 kts | 271° |
| 2026-04-24 04:07 | 32.79103 | -98.87417 | 33784 ft | 428 kts | 271° |
| 2026-04-24 04:07 | 32.79099 | -98.94499 | 33778 ft | 429 kts | 271° |
| 2026-04-24 04:08 | 32.79092 | -99.01586 | 33775 ft | 429 kts | 271° |
| 2026-04-24 04:08 | 32.79079 | -99.08670 | 33780 ft | 428 kts | 271° |
| 2026-04-24 04:09 | 32.79063 | -99.15749 | 33772 ft | 428 kts | 271° |
| 2026-04-24 04:09 | 32.79042 | -99.22829 | 33783 ft | 428 kts | 270° |
| 2026-04-24 04:10 | 32.79019 | -99.29905 | 33773 ft | 428 kts | 270° |
| 2026-04-24 04:10 | 32.78757 | -99.36953 | 33780 ft | 427 kts | 265° |
| 2026-04-24 04:11 | 32.77749 | -99.47475 | 33779 ft | 427 kts | 265° |
| 2026-04-24 04:11 | 32.77088 | -99.54495 | 33784 ft | 427 kts | 265° |
| 2026-04-24 04:12 | 32.76426 | -99.61499 | 33787 ft | 427 kts | 265° |
| 2026-04-24 04:12 | 32.75761 | -99.68505 | 33787 ft | 427 kts | 265° |
| 2026-04-24 04:13 | 32.75093 | -99.75505 | 33762 ft | 427 kts | 265° |
| 2026-04-24 04:13 | 32.74417 | -99.82508 | 33775 ft | 427 kts | 265° |
| 2026-04-24 04:14 | 32.73741 | -99.89506 | 33771 ft | 427 kts | 265° |
| 2026-04-24 04:14 | 32.73063 | -99.96472 | 33766 ft | 427 kts | 265° |
| 2026-04-24 04:15 | 32.72378 | -100.03488 | 33782 ft | 427 kts | 265° |
| 2026-04-24 04:15 | 32.71690 | -100.10480 | 33787 ft | 426 kts | 265° |
| 2026-04-24 04:16 | 32.71000 | -100.17455 | 33792 ft | 425 kts | 265° |
| 2026-04-24 04:16 | 32.70307 | -100.24419 | 33801 ft | 424 kts | 264° |
| 2026-04-24 04:17 | 32.69611 | -100.31367 | 33814 ft | 424 kts | 264° |
| 2026-04-24 04:17 | 32.68913 | -100.38310 | 33827 ft | 424 kts | 264° |
| 2026-04-24 04:18 | 32.68210 | -100.45251 | 33822 ft | 424 kts | 264° |
| 2026-04-24 04:18 | 32.67503 | -100.52191 | 33835 ft | 424 kts | 264° |
| 2026-04-24 04:19 | 32.66792 | -100.59150 | 33835 ft | 423 kts | 264° |
| 2026-04-24 04:19 | 32.66077 | -100.66083 | 33829 ft | 423 kts | 264° |
| 2026-04-24 04:20 | 32.65359 | -100.73009 | 33827 ft | 423 kts | 264° |
| 2026-04-24 04:20 | 32.64636 | -100.79938 | 33825 ft | 423 kts | 264° |
| 2026-04-24 04:21 | 32.63909 | -100.86870 | 33814 ft | 423 kts | 264° |
| 2026-04-24 04:21 | 32.63181 | -100.93803 | 33812 ft | 423 kts | 264° |
| 2026-04-24 04:22 | 32.62447 | -101.00737 | 33815 ft | 424 kts | 264° |
| 2026-04-24 04:22 | 32.61710 | -101.07671 | 33815 ft | 423 kts | 264° |
| 2026-04-24 04:23 | 32.60971 | -101.14595 | 33816 ft | 423 kts | 264° |
| 2026-04-24 04:23 | 32.60229 | -101.21505 | 33826 ft | 422 kts | 264° |
| 2026-04-24 04:24 | 32.59485 | -101.28396 | 33823 ft | 421 kts | 264° |
| 2026-04-24 04:24 | 32.58737 | -101.35280 | 33837 ft | 421 kts | 264° |
| 2026-04-24 04:25 | 32.57990 | -101.42109 | 33837 ft | 420 kts | 264° |
| 2026-04-24 04:25 | 32.57236 | -101.48986 | 33834 ft | 421 kts | 264° |
| 2026-04-24 04:26 | 32.56478 | -101.55856 | 33834 ft | 420 kts | 264° |
| 2026-04-24 04:26 | 32.55718 | -101.62728 | 33841 ft | 420 kts | 264° |
| 2026-04-24 04:27 | 32.54952 | -101.69587 | 33842 ft | 420 kts | 264° |
| 2026-04-24 04:27 | 32.54183 | -101.76448 | 33843 ft | 420 kts | 264° |
| 2026-04-24 04:28 | 32.53413 | -101.83298 | 33840 ft | 420 kts | 264° |
| 2026-04-24 04:28 | 32.52637 | -101.90155 | 33844 ft | 420 kts | 264° |
| 2026-04-24 04:29 | 32.51859 | -101.97005 | 33846 ft | 419 kts | 264° |
| 2026-04-24 04:29 | 32.51077 | -102.03844 | 33855 ft | 419 kts | 264° |
| 2026-04-24 04:30 | 32.50291 | -102.10675 | 33851 ft | 419 kts | 264° |
| 2026-04-24 04:30 | 32.49506 | -102.17507 | 33860 ft | 418 kts | 264° |
| 2026-04-24 04:31 | 32.48715 | -102.24319 | 33870 ft | 417 kts | 264° |
| 2026-04-24 04:31 | 32.47922 | -102.31125 | 33872 ft | 417 kts | 264° |
| 2026-04-24 04:32 | 32.47128 | -102.37925 | 33877 ft | 417 kts | 264° |
| 2026-04-24 04:32 | 32.46326 | -102.44725 | 33880 ft | 417 kts | 264° |
| 2026-04-24 04:33 | 32.45525 | -102.51527 | 33880 ft | 417 kts | 264° |
| 2026-04-24 04:33 | 32.44716 | -102.58330 | 33880 ft | 417 kts | 263° |
| 2026-04-24 04:34 | 32.43909 | -102.65089 | 33882 ft | 417 kts | 263° |
| 2026-04-24 04:34 | 32.43095 | -102.71889 | 33890 ft | 417 kts | 263° |
| 2026-04-24 04:35 | 32.42277 | -102.78686 | 33886 ft | 417 kts | 263° |
| 2026-04-24 04:35 | 32.41455 | -102.85475 | 33892 ft | 417 kts | 263° |
| 2026-04-24 04:36 | 32.40630 | -102.92266 | 33887 ft | 417 kts | 263° |
| 2026-04-24 04:36 | 32.39801 | -102.99051 | 33894 ft | 416 kts | 263° |
| 2026-04-24 04:37 | 32.38972 | -103.05819 | 33890 ft | 415 kts | 263° |
| 2026-04-24 04:37 | 32.38139 | -103.12578 | 33889 ft | 415 kts | 263° |
| 2026-04-24 04:38 | 32.37302 | -103.19339 | 33891 ft | 415 kts | 263° |
| 2026-04-24 04:38 | 32.36465 | -103.26080 | 33891 ft | 414 kts | 263° |
| 2026-04-24 04:39 | 32.35625 | -103.32813 | 33897 ft | 413 kts | 263° |
| 2026-04-24 04:39 | 32.34925 | -103.38398 | 33885 ft | 414 kts | 263° |
| 2026-04-24 04:40 | 32.34078 | -103.45122 | 33884 ft | 413 kts | 263° |
| 2026-04-24 04:40 | 32.33229 | -103.51848 | 33891 ft | 413 kts | 263° |
| 2026-04-24 04:41 | 32.32375 | -103.58565 | 33882 ft | 413 kts | 263° |
| 2026-04-24 04:41 | 32.31520 | -103.65268 | 33886 ft | 412 kts | 263° |
| 2026-04-24 04:42 | 32.30661 | -103.71968 | 33888 ft | 412 kts | 263° |
| 2026-04-24 04:42 | 32.29800 | -103.78660 | 33888 ft | 412 kts | 263° |
| 2026-04-24 04:43 | 32.28937 | -103.85344 | 33885 ft | 411 kts | 263° |
| 2026-04-24 04:43 | 32.28073 | -103.92013 | 33890 ft | 410 kts | 263° |
| 2026-04-24 04:44 | 32.27204 | -103.98680 | 33893 ft | 410 kts | 263° |
| 2026-04-24 04:44 | 32.26333 | -104.05344 | 33883 ft | 410 kts | 262° |
| 2026-04-24 04:45 | 32.25455 | -104.12010 | 33891 ft | 411 kts | 262° |
| 2026-04-24 04:45 | 32.24578 | -104.18680 | 33885 ft | 411 kts | 262° |
| 2026-04-24 04:46 | 32.23695 | -104.25348 | 33886 ft | 411 kts | 262° |
| 2026-04-24 04:46 | 32.22806 | -104.32016 | 33890 ft | 411 kts | 262° |
| 2026-04-24 04:47 | 32.21916 | -104.38683 | 33888 ft | 411 kts | 262° |
| 2026-04-24 04:47 | 32.21020 | -104.45364 | 33887 ft | 412 kts | 262° |
| 2026-04-24 04:48 | 32.20125 | -104.51998 | 33895 ft | 412 kts | 262° |
| 2026-04-24 04:48 | 32.19222 | -104.58679 | 33894 ft | 412 kts | 262° |
| 2026-04-24 04:49 | 32.18309 | -104.65406 | 33904 ft | 412 kts | 262° |
| 2026-04-24 04:49 | 32.17403 | -104.72041 | 33910 ft | 412 kts | 262° |
| 2026-04-24 04:50 | 32.16491 | -104.78709 | 33907 ft | 411 kts | 262° |
| 2026-04-24 04:50 | 32.15577 | -104.85370 | 33916 ft | 411 kts | 262° |
| 2026-04-24 04:51 | 32.14658 | -104.92030 | 33927 ft | 411 kts | 262° |
| 2026-04-24 04:51 | 32.13736 | -104.98688 | 33932 ft | 411 kts | 262° |
| 2026-04-24 04:52 | 32.12809 | -105.05346 | 33931 ft | 411 kts | 262° |
| 2026-04-24 04:52 | 32.11879 | -105.11998 | 33929 ft | 410 kts | 262° |
| 2026-04-24 04:53 | 32.10949 | -105.18630 | 33941 ft | 410 kts | 262° |
| 2026-04-24 04:53 | 32.10017 | -105.25257 | 33936 ft | 409 kts | 262° |
| 2026-04-24 04:54 | 32.09083 | -105.31868 | 33948 ft | 408 kts | 262° |
| 2026-04-24 04:54 | 32.08148 | -105.38458 | 33947 ft | 407 kts | 262° |
| 2026-04-24 04:55 | 32.07212 | -105.45036 | 33955 ft | 406 kts | 262° |
| 2026-04-24 04:55 | 32.06278 | -105.51586 | 33955 ft | 405 kts | 262° |
| 2026-04-24 04:56 | 32.05335 | -105.58133 | 33959 ft | 405 kts | 262° |
| 2026-04-24 04:56 | 32.04388 | -105.64679 | 33961 ft | 405 kts | 262° |
| 2026-04-24 04:57 | 32.03442 | -105.71225 | 33972 ft | 406 kts | 262° |
| 2026-04-24 04:57 | 32.02494 | -105.77779 | 33979 ft | 405 kts | 262° |
| 2026-04-24 04:58 | 32.01549 | -105.84267 | 33983 ft | 404 kts | 262° |
| 2026-04-24 04:58 | 32.00592 | -105.90797 | 33980 ft | 404 kts | 262° |
| 2026-04-24 04:59 | 31.99634 | -105.97313 | 33981 ft | 404 kts | 262° |
| 2026-04-24 04:59 | 31.98676 | -106.03828 | 33984 ft | 403 kts | 262° |
| 2026-04-24 05:00 | 31.97713 | -106.10340 | 33975 ft | 403 kts | 262° |
| 2026-04-24 05:00 | 31.96746 | -106.16853 | 33983 ft | 404 kts | 262° |
| 2026-04-24 05:01 | 31.95875 | -106.23376 | 33978 ft | 403 kts | 266° |
| 2026-04-24 05:01 | 31.95749 | -106.29969 | 33973 ft | 403 kts | 270° |
| 2026-04-24 05:02 | 31.96249 | -106.36552 | 33969 ft | 404 kts | 276° |
| 2026-04-24 05:02 | 31.97045 | -106.43118 | 33974 ft | 405 kts | 276° |
| 2026-04-24 05:03 | 31.97832 | -106.49689 | 33977 ft | 405 kts | 276° |
| 2026-04-24 05:03 | 31.98602 | -106.56261 | 33978 ft | 406 kts | 276° |
| 2026-04-24 05:04 | 31.99365 | -106.62846 | 33989 ft | 405 kts | 276° |
| 2026-04-24 05:04 | 32.00123 | -106.69420 | 33995 ft | 404 kts | 276° |
| 2026-04-24 05:05 | 32.00875 | -106.76000 | 33997 ft | 406 kts | 275° |
| 2026-04-24 05:05 | 32.01633 | -106.82625 | 34012 ft | 409 kts | 275° |
| 2026-04-24 05:06 | 32.03310 | -106.97493 | 34017 ft | 412 kts | 275° |
| 2026-04-24 05:06 | 32.06300 | -107.24326 | 34029 ft | 413 kts | 275° |
| 2026-04-24 05:07 | 32.09235 | -107.51225 | 34010 ft | 412 kts | 275° |
| 2026-04-24 05:07 | 32.12092 | -107.77920 | 34007 ft | 409 kts | 274° |
| 2026-04-24 05:08 | 32.14873 | -108.04462 | 34025 ft | 406 kts | 274° |
| 2026-04-24 05:08 | 32.17586 | -108.30893 | 34033 ft | 406 kts | 274° |
| 2026-04-24 05:09 | 32.20248 | -108.57386 | 34031 ft | 408 kts | 274° |
| 2026-04-24 05:09 | 32.22865 | -108.83982 | 34019 ft | 408 kts | 274° |
| 2026-04-24 05:10 | 32.25426 | -109.10644 | 34028 ft | 409 kts | 274° |
| 2026-04-24 05:10 | 32.30473 | -109.36637 | 34053 ft | 413 kts | 288° |
| 2026-04-24 05:11 | 32.39307 | -109.61784 | 33994 ft | 410 kts | 287° |
| 2026-04-24 05:11 | 32.47845 | -109.86464 | 34025 ft | 407 kts | 287° |
| 2026-04-24 05:12 | 32.56370 | -110.11286 | 34018 ft | 407 kts | 287° |
| 2026-04-24 05:12 | 32.64850 | -110.36171 | 34100 ft | 407 kts | 287° |
| 2026-04-24 05:13 | 32.77607 | -110.73962 | 34065 ft | 413 kts | 287° |
| 2026-04-24 05:14 | 32.86116 | -110.99423 | 34069 ft | 416 kts | 288° |
| 2026-04-24 05:14 | 32.94650 | -111.25164 | 33992 ft | 420 kts | 288° |
| 2026-04-24 05:15 | 33.03196 | -111.51148 | 33951 ft | 422 kts | 288° |
| 2026-04-24 05:15 | 33.11701 | -111.77231 | 33934 ft | 423 kts | 288° |
| 2026-04-24 05:16 | 33.20184 | -112.03462 | 33935 ft | 425 kts | 288° |
| 2026-04-24 05:16 | 33.28663 | -112.29907 | 33949 ft | 427 kts | 288° |
| 2026-04-24 05:16 | 33.32887 | -112.43164 | 34079 ft | 427 kts | 288° |
| 2026-04-24 05:17 | 33.37125 | -112.56531 | 33921 ft | 432 kts | 288° |
| 2026-04-24 05:17 | 33.45600 | -112.83425 | 33935 ft | 431 kts | 288° |
| 2026-04-24 05:18 | 33.55136 | -113.09870 | 33934 ft | 432 kts | 289° |
| 2026-04-24 05:18 | 33.64568 | -113.36399 | 33997 ft | 432 kts | 289° |
| 2026-04-24 05:19 | 33.73982 | -113.63094 | 33984 ft | 436 kts | 289° |
| 2026-04-24 05:19 | 33.83359 | -113.90153 | 33929 ft | 440 kts | 288° |
| 2026-04-24 05:20 | 33.91821 | -114.17733 | 33897 ft | 437 kts | 278° |
| 2026-04-24 05:20 | 33.96446 | -114.46432 | 33912 ft | 436 kts | 278° |
| 2026-04-24 05:21 | 34.01218 | -114.75027 | 33926 ft | 434 kts | 278° |
| 2026-04-24 05:21 | 34.05890 | -115.03498 | 33920 ft | 431 kts | 278° |
| 2026-04-24 05:22 | 34.10455 | -115.31634 | 33957 ft | 430 kts | 278° |
| 2026-04-24 05:22 | 34.14994 | -115.60115 | 33929 ft | 429 kts | 278° |
| 2026-04-24 05:22 | 34.15964 | -115.74283 | 34013 ft | 423 kts | 262° |
| 2026-04-24 05:23 | 34.14525 | -115.88228 | 33994 ft | 426 kts | 263° |
| 2026-04-24 05:23 | 34.11740 | -116.16707 | 34014 ft | 428 kts | 263° |
| 2026-04-24 05:24 | 34.10862 | -116.25529 | 33104 ft | 441 kts | 263° |
| 2026-04-24 05:24 | 34.10497 | -116.29186 | 32147 ft | 441 kts | 263° |
| 2026-04-24 05:24 | 34.10122 | -116.32843 | 31547 ft | 434 kts | 263° |
| 2026-04-24 05:24 | 34.09743 | -116.36418 | 30982 ft | 427 kts | 263° |
| 2026-04-24 05:25 | 34.09486 | -116.38808 | 30597 ft | 424 kts | 263° |
| 2026-04-24 05:25 | 34.08981 | -116.43486 | 29887 ft | 424 kts | 263° |
| 2026-04-24 05:25 | 34.08598 | -116.47021 | 29356 ft | 426 kts | 263° |
| 2026-04-24 05:25 | 34.08214 | -116.50559 | 28826 ft | 423 kts | 263° |
| 2026-04-24 05:26 | 34.07837 | -116.54052 | 28282 ft | 416 kts | 263° |
| 2026-04-24 05:26 | 34.07586 | -116.56374 | 27931 ft | 411 kts | 263° |
| 2026-04-24 05:26 | 34.07222 | -116.59767 | 27416 ft | 404 kts | 263° |
| 2026-04-24 05:26 | 34.06902 | -116.63088 | 27069 ft | 393 kts | 264° |
| 2026-04-24 05:27 | 34.06610 | -116.66300 | 26449 ft | 376 kts | 264° |
| 2026-04-24 05:27 | 34.06332 | -116.69405 | 25980 ft | 371 kts | 265° |
| 2026-04-24 05:27 | 34.06054 | -116.72484 | 25507 ft | 368 kts | 264° |
| 2026-04-24 05:27 | 34.05772 | -116.75534 | 25033 ft | 364 kts | 265° |
| 2026-04-24 05:28 | 34.05493 | -116.78514 | 24579 ft | 361 kts | 265° |
| 2026-04-24 05:28 | 34.05211 | -116.81508 | 24135 ft | 358 kts | 265° |
| 2026-04-24 05:28 | 34.04931 | -116.84482 | 23691 ft | 357 kts | 265° |
| 2026-04-24 05:28 | 34.04651 | -116.87449 | 23237 ft | 356 kts | 265° |
| 2026-04-24 05:29 | 34.04353 | -116.90414 | 22803 ft | 357 kts | 263° |
| 2026-04-24 05:29 | 34.03969 | -116.93370 | 22361 ft | 356 kts | 262° |
| 2026-04-24 05:29 | 34.03568 | -116.96304 | 21908 ft | 353 kts | 262° |
| 2026-04-24 05:29 | 34.03179 | -116.99214 | 21466 ft | 350 kts | 262° |
| 2026-04-24 05:30 | 34.02801 | -117.02101 | 21031 ft | 347 kts | 262° |
| 2026-04-24 05:30 | 34.02438 | -117.04970 | 20597 ft | 345 kts | 263° |
| 2026-04-24 05:30 | 34.02100 | -117.07827 | 20158 ft | 344 kts | 263° |
| 2026-04-24 05:30 | 34.01769 | -117.10674 | 19724 ft | 343 kts | 263° |
| 2026-04-24 05:31 | 34.01437 | -117.13510 | 19292 ft | 341 kts | 263° |
| 2026-04-24 05:31 | 34.01104 | -117.16327 | 18867 ft | 338 kts | 263° |
| 2026-04-24 05:31 | 34.00771 | -117.19115 | 18440 ft | 336 kts | 263° |
| 2026-04-24 05:31 | 34.00440 | -117.21892 | 18014 ft | 333 kts | 263° |
| 2026-04-24 05:32 | 34.00111 | -117.24641 | 17594 ft | 331 kts | 263° |
| 2026-04-24 05:32 | 33.99783 | -117.27383 | 17180 ft | 330 kts | 263° |
| 2026-04-24 05:32 | 33.99455 | -117.30116 | 16767 ft | 328 kts | 263° |
| 2026-04-24 05:32 | 33.99132 | -117.32831 | 16347 ft | 326 kts | 263° |
| 2026-04-24 05:33 | 33.98816 | -117.35525 | 15933 ft | 324 kts | 263° |
| 2026-04-24 05:33 | 33.98502 | -117.38205 | 15528 ft | 323 kts | 263° |
| 2026-04-24 05:33 | 33.98189 | -117.40874 | 15115 ft | 322 kts | 263° |
| 2026-04-24 05:34 | 33.97558 | -117.46226 | 14311 ft | 321 kts | 263° |
| 2026-04-24 05:34 | 33.97310 | -117.48889 | 13900 ft | 318 kts | 270° |
| 2026-04-24 05:34 | 33.97622 | -117.51478 | 13502 ft | 309 kts | 283° |
| 2026-04-24 05:34 | 33.98125 | -117.53986 | 13121 ft | 307 kts | 282° |
| 2026-04-24 05:35 | 33.98592 | -117.56485 | 12736 ft | 305 kts | 282° |
| 2026-04-24 05:35 | 33.99042 | -117.58974 | 12360 ft | 304 kts | 282° |
| 2026-04-24 05:35 | 33.99485 | -117.61461 | 11971 ft | 303 kts | 282° |
| 2026-04-24 05:35 | 33.99924 | -117.63939 | 11597 ft | 302 kts | 282° |
| 2026-04-24 05:36 | 34.00361 | -117.66402 | 11243 ft | 300 kts | 282° |
| 2026-04-24 05:36 | 34.00678 | -117.68848 | 10838 ft | 292 kts | 269° |
| 2026-04-24 05:36 | 34.00446 | -117.71248 | 10528 ft | 287 kts | 263° |
| 2026-04-24 05:36 | 34.00186 | -117.73635 | 10134 ft | 287 kts | 264° |
| 2026-04-24 05:37 | 33.99946 | -117.76015 | 9754 ft | 282 kts | 264° |
| 2026-04-24 05:37 | 33.99717 | -117.78326 | 9401 ft | 276 kts | 264° |
| 2026-04-24 05:37 | 33.99492 | -117.80622 | 9051 ft | 276 kts | 264° |
| 2026-04-24 05:37 | 33.99267 | -117.82916 | 8700 ft | 276 kts | 264° |
| 2026-04-24 05:38 | 33.99043 | -117.85214 | 8357 ft | 276 kts | 264° |
| 2026-04-24 05:38 | 33.98820 | -117.87512 | 8008 ft | 276 kts | 264° |
| 2026-04-24 05:38 | 33.98648 | -117.89809 | 7658 ft | 275 kts | 265° |
| 2026-04-24 05:38 | 33.98464 | -117.92108 | 7304 ft | 275 kts | 264° |
| 2026-04-24 05:39 | 33.98249 | -117.94396 | 6957 ft | 275 kts | 264° |
| 2026-04-24 05:39 | 33.98018 | -117.96682 | 6611 ft | 274 kts | 264° |
| 2026-04-24 05:39 | 33.97785 | -117.98961 | 6260 ft | 274 kts | 263° |
| 2026-04-24 05:39 | 33.97550 | -118.01239 | 5913 ft | 274 kts | 263° |
| 2026-04-24 05:40 | 33.97315 | -118.03514 | 5592 ft | 272 kts | 263° |
| 2026-04-24 05:40 | 33.97087 | -118.05723 | 5294 ft | 260 kts | 263° |
| 2026-04-24 05:40 | 33.96867 | -118.07874 | 4979 ft | 259 kts | 263° |
| 2026-04-24 05:40 | 33.96647 | -118.10027 | 4644 ft | 259 kts | 263° |
| 2026-04-24 05:41 | 33.96425 | -118.12179 | 4305 ft | 259 kts | 263° |
| 2026-04-24 05:41 | 33.96202 | -118.14337 | 3968 ft | 259 kts | 263° |
| 2026-04-24 05:41 | 33.95980 | -118.16494 | 3616 ft | 260 kts | 263° |
| 2026-04-24 05:41 | 33.95759 | -118.18646 | 3268 ft | 257 kts | 263° |
| 2026-04-24 05:42 | 33.95547 | -118.20711 | 2923 ft | 246 kts | 263° |
| 2026-04-24 05:42 | 33.95340 | -118.22728 | 2654 ft | 232 kts | 263° |
| 2026-04-24 05:42 | 33.95148 | -118.24593 | 2338 ft | 214 kts | 263° |
| 2026-04-24 05:42 | 33.94974 | -118.26273 | 2054 ft | 190 kts | 263° |
| 2026-04-24 05:43 | 33.94822 | -118.27754 | 1794 ft | 170 kts | 263° |
| 2026-04-24 05:43 | 33.94687 | -118.29072 | 1582 ft | 148 kts | 264° |
| 2026-04-24 05:43 | 33.94565 | -118.30255 | 1429 ft | 142 kts | 263° |
| 2026-04-24 05:43 | 33.94443 | -118.31439 | 1243 ft | 142 kts | 264° |
| 2026-04-24 05:44 | 33.94322 | -118.32612 | 1040 ft | 140 kts | 264° |
| 2026-04-24 05:44 | 33.94202 | -118.33771 | 846 ft | 139 kts | 264° |
| 2026-04-24 05:44 | 33.94083 | -118.34926 | 672 ft | 139 kts | 264° |
| 2026-04-24 05:44 | 33.93965 | -118.36084 | 487 ft | 139 kts | 262° |
| 2026-04-24 05:45 | 33.93853 | -118.37239 | 318 ft | 138 kts | 261° |
| 2026-04-24 05:45 | 33.93726 | -118.38376 | 140 ft | 134 kts | 263° |
| 2026-04-24 05:45 | 33.93621 | -118.39402 | 99 ft | 104 kts | 263° |
| 2026-04-24 05:45 | 33.93551 | -118.40048 | 104 ft | 55 kts | 262° |
| 2026-04-24 05:46 | 33.93542 | -118.40439 | 101 ft | 33 kts | 279° |
| 2026-04-24 05:46 | 33.93595 | -118.40661 | 102 ft | 19 kts | 281° |
| 2026-04-24 05:46 | 33.93597 | -118.40693 | 100 ft | 1 kts | 270° |
| 2026-04-24 05:46 | 33.93598 | -118.40814 | 101 ft | 22 kts | 287° |
| 2026-04-24 05:47 | 33.93714 | -118.40907 | 102 ft | 20 kts | 352° |
| 2026-04-24 05:47 | 33.93792 | -118.40831 | 100 ft | 18 kts | 77° |
| 2026-04-24 05:47 | 33.93811 | -118.40674 | 101 ft | 19 kts | 84° |
| 2026-04-24 05:47 | 33.93826 | -118.40515 | 102 ft | 19 kts | 82° |
| 2026-04-24 05:48 | 33.93843 | -118.40356 | 100 ft | 19 kts | 83° |
| 2026-04-24 05:48 | 33.93856 | -118.40197 | 101 ft | 19 kts | 83° |
| 2026-04-24 05:48 | 33.93876 | -118.40064 | 101 ft | 8 kts | 63° |
| 2026-04-24 05:48 | 33.93931 | -118.40050 | 101 ft | 7 kts | 13° |
| 2026-04-24 05:49 | 33.93965 | -118.39984 | 101 ft | 19 kts | 82° |
| 2026-04-24 05:49 | 33.93995 | -118.39847 | 101 ft | 8 kts | 33° |
| 2026-04-24 05:49 | 33.94043 | -118.39869 | 102 ft | 6 kts | 310° |
| 2026-04-24 05:49 | 33.94045 | -118.39872 | 98 ft | 0 kts | 310° |